createdAt,value
2019-05-14T00:01:14.978Z,8.8
2019-05-14T00:02:28.130Z,8.8
2019-05-14T00:03:44.579Z,8.7
2019-05-14T00:04:58.675Z,8.7
2019-05-14T00:06:14.022Z,8.7
2019-05-14T00:07:31.966Z,8.6
2019-05-14T00:08:47.065Z,8.6
2019-05-14T00:10:04.645Z,8.6
2019-05-14T00:11:17.365Z,8.6
2019-05-14T00:12:32.757Z,8.6
2019-05-14T00:13:46.497Z,8.5
2019-05-14T00:14:59.351Z,8.5
2019-05-14T00:16:17.266Z,8.5
2019-05-14T00:17:34.878Z,8.5
2019-05-14T00:18:51.136Z,8.4
2019-05-14T00:20:18.704Z,8.5
2019-05-14T00:21:35.683Z,8.3
2019-05-14T00:22:52.139Z,8.3
2019-05-14T00:24:07.244Z,8.3
2019-05-14T00:25:22.006Z,8.3
2019-05-14T00:26:31.812Z,8.1
2019-05-14T00:27:38.556Z,8.1
2019-05-14T00:28:46.564Z,8.1
2019-05-14T00:29:56.776Z,8.1
2019-05-14T00:31:03.400Z,8.1
2019-05-14T00:33:07.911Z,8.1
2019-05-14T00:34:12.161Z,8.2
2019-05-14T00:36:16.379Z,8.1
2019-05-14T00:38:23.054Z,8
2019-05-14T00:39:25.145Z,8
2019-05-14T00:40:27.225Z,8
2019-05-14T00:41:31.578Z,8
2019-05-14T00:43:35.769Z,7.9
2019-05-14T00:45:01.043Z,7.9
2019-05-14T00:46:03.298Z,7.9
2019-05-14T00:48:07.514Z,7.8
2019-05-14T00:49:12.049Z,7.8
2019-05-14T00:51:16.273Z,7.6
2019-05-14T00:53:22.464Z,7.7
2019-05-14T00:55:26.675Z,7.7
2019-05-14T00:56:28.752Z,7.7
2019-05-14T00:58:35.525Z,7.7
2019-05-14T01:00:42.452Z,7.6
2019-05-14T01:01:44.526Z,7.6
2019-05-14T01:02:47.009Z,7.6
2019-05-14T01:03:51.892Z,7.7
2019-05-14T01:05:56.557Z,7.7
2019-05-14T01:08:03.165Z,7.6
2019-05-14T01:09:05.277Z,7.6
2019-05-14T01:10:07.747Z,7.6
2019-05-14T01:11:12.201Z,7.6
2019-05-14T01:13:16.368Z,7.7
2019-05-14T01:15:22.740Z,7.7
2019-05-14T01:16:24.813Z,7.7
2019-05-14T01:18:29.004Z,7.8
2019-05-14T01:20:35.173Z,7.8
2019-05-14T01:21:37.253Z,7.6
2019-05-14T01:22:39.326Z,7.6
2019-05-14T01:23:42.610Z,7.5
2019-05-14T01:25:46.820Z,7.5
2019-05-14T01:27:52.896Z,7.6
2019-05-14T01:28:55.000Z,7.6
2019-05-14T01:31:02.149Z,7.5
2019-05-14T01:33:06.325Z,7.4
2019-05-14T01:35:13.063Z,7.5
2019-05-14T01:36:15.142Z,7.3
2019-05-14T01:38:22.344Z,7.3
2019-05-14T01:40:26.846Z,7.2
2019-05-14T01:41:28.900Z,7.3
2019-05-14T01:42:33.121Z,7.3
2019-05-14T01:43:35.140Z,7.1
2019-05-14T01:45:41.857Z,7
2019-05-14T01:47:46.482Z,7
2019-05-14T01:48:48.554Z,6.9
2019-05-14T01:49:52.619Z,6.9
2019-05-14T01:50:54.681Z,6.7
2019-05-14T01:53:01.413Z,7.1
2019-05-14T01:55:05.603Z,7.1
2019-05-14T01:56:07.669Z,7.1
2019-05-14T01:58:14.892Z,7
2019-05-14T02:00:19.110Z,7.1
2019-05-14T02:02:25.425Z,7.4
2019-05-14T02:03:27.477Z,7.5
2019-05-14T02:05:34.521Z,7.3
2019-05-14T02:07:39.103Z,7.3
2019-05-14T02:08:42.501Z,7.1
2019-05-14T02:09:44.575Z,7.4
2019-05-14T02:10:46.628Z,7.6
2019-05-14T02:12:52.632Z,7.4
2019-05-14T02:14:57.170Z,7.8
2019-05-14T02:16:03.532Z,7.5
2019-05-14T02:18:08.351Z,7.6
2019-05-14T02:20:14.974Z,7.9
2019-05-14T02:22:21.432Z,7.5
2019-05-14T02:23:24.215Z,7.8
2019-05-14T02:25:28.676Z,7.8
2019-05-14T02:27:36.067Z,8.2
2019-05-14T02:28:38.157Z,8.2
2019-05-14T02:29:42.883Z,8.3
2019-05-14T02:31:04.646Z,8.4
2019-05-14T02:32:11.833Z,8.2
2019-05-14T02:33:14.458Z,7.9
2019-05-14T02:35:23.211Z,8.4
2019-05-14T02:37:31.136Z,8.5
2019-05-14T02:38:33.604Z,8.5
2019-05-14T02:39:36.003Z,8.3
2019-05-14T02:40:41.555Z,8.5
2019-05-14T02:42:46.289Z,8.7
2019-05-14T02:44:54.020Z,8.8
2019-05-14T02:46:23.082Z,8.8
2019-05-14T02:47:25.408Z,8.8
2019-05-14T02:48:30.607Z,8.8
2019-05-14T02:49:32.705Z,8.9
2019-05-14T02:50:35.048Z,8.9
2019-05-14T02:52:42.375Z,8.9
2019-05-14T02:54:51.158Z,8.8
2019-05-14T02:55:53.245Z,9
2019-05-14T02:56:56.281Z,9.1
2019-05-14T02:58:01.408Z,9.1
2019-05-14T02:59:10.804Z,9.1
2019-05-14T03:00:13.172Z,9.3
2019-05-14T03:02:20.307Z,9.3
2019-05-14T03:03:23.050Z,9.2
2019-05-14T03:04:25.142Z,9.3
2019-05-14T03:05:31.103Z,9.2
2019-05-14T03:07:40.093Z,9.2
2019-05-14T03:09:44.747Z,9.1
2019-05-14T03:11:54.172Z,9.3
2019-05-14T03:13:00.183Z,9.3
2019-05-14T03:15:09.281Z,9.3
2019-05-14T03:16:41.046Z,9.3
2019-05-14T03:17:44.067Z,9.2
2019-05-14T03:19:51.750Z,9.2
2019-05-14T03:21:56.194Z,9.2
2019-05-14T03:23:24.042Z,9.3
2019-05-14T03:24:29.396Z,9.2
2019-05-14T03:25:31.807Z,9.1
2019-05-14T03:27:36.207Z,9.1
2019-05-14T03:29:44.078Z,9
2019-05-14T03:32:04.386Z,9.2
2019-05-14T03:33:14.343Z,9.1
2019-05-14T03:34:23.460Z,9.3
2019-05-14T03:36:24.947Z,9
2019-05-14T03:37:35.088Z,9.1
2019-05-14T03:39:43.572Z,9.2
2019-05-14T03:40:45.645Z,9.1
2019-05-14T03:41:51.103Z,9.1
2019-05-14T03:42:53.188Z,9
2019-05-14T03:45:01.589Z,9.1
2019-05-14T03:47:11.621Z,9.1
2019-05-14T03:49:20.172Z,9.2
2019-05-14T03:50:22.551Z,9.1
2019-05-14T03:52:31.178Z,9.2
2019-05-14T03:54:13.509Z,9.2
2019-05-14T03:55:15.886Z,9
2019-05-14T03:57:23.848Z,9.2
2019-05-14T03:59:33.679Z,9.3
2019-05-14T04:00:39.423Z,9.3
2019-05-14T04:02:44.146Z,9.2
2019-05-14T04:04:51.770Z,9.1
2019-05-14T04:07:00.287Z,9.2
2019-05-14T04:08:02.952Z,9.4
2019-05-14T04:10:12.257Z,9.3
2019-05-14T04:12:20.954Z,9.3
2019-05-14T04:14:28.864Z,9.6
2019-05-14T04:15:31.534Z,9.5
2019-05-14T04:17:43.481Z,9.4
2019-05-14T04:18:45.805Z,9.5
2019-05-14T04:19:50.994Z,9.6
2019-05-14T04:21:55.976Z,9.6
2019-05-14T04:23:01.054Z,9.7
2019-05-14T04:25:06.241Z,9.7
2019-05-14T04:27:14.943Z,9.7
2019-05-14T04:29:23.129Z,9.8
2019-05-14T04:30:28.816Z,9.8
2019-05-14T04:32:34.353Z,9.7
2019-05-14T04:34:42.346Z,9.7
2019-05-14T04:35:44.438Z,9.8
2019-05-14T04:36:50.676Z,9.9
2019-05-14T04:37:53.354Z,9.8
2019-05-14T04:40:03.923Z,9.9
2019-05-14T04:42:10.915Z,10
2019-05-14T04:44:15.350Z,9.9
2019-05-14T04:45:21.150Z,9.9
2019-05-14T04:47:43.193Z,10.1
2019-05-14T04:48:51.329Z,9.9
2019-05-14T04:49:53.494Z,9.9
2019-05-14T04:52:01.027Z,9.9
2019-05-14T04:53:03.412Z,10.1
2019-05-14T04:54:09.019Z,10.2
2019-05-14T04:55:11.766Z,10.2
2019-05-14T04:57:30.552Z,10.1
2019-05-14T04:59:40.269Z,10.2
2019-05-14T05:01:45.328Z,10.5
2019-05-14T05:02:51.361Z,10.6
2019-05-14T05:04:59.873Z,10.6
2019-05-14T05:07:04.772Z,10.4
2019-05-14T05:08:15.099Z,10.3
2019-05-14T05:09:21.146Z,10.5
2019-05-14T05:10:23.234Z,10.5
2019-05-14T05:11:28.743Z,10.5
2019-05-14T05:12:31.675Z,10.6
2019-05-14T05:14:39.272Z,10.7
2019-05-14T05:16:43.818Z,10.7
2019-05-14T05:17:54.131Z,10.6
2019-05-14T05:19:00.080Z,10.6
2019-05-14T05:20:02.162Z,10.7
2019-05-14T05:22:08.853Z,10.6
2019-05-14T05:24:13.028Z,10.9
2019-05-14T05:25:15.106Z,11
2019-05-14T05:26:20.048Z,11.1
2019-05-14T05:27:22.400Z,11.2
2019-05-14T05:29:29.211Z,11.1
2019-05-14T05:31:34.016Z,11.1
2019-05-14T05:32:38.539Z,11.2
2019-05-14T05:34:43.672Z,11.3
2019-05-14T05:36:49.623Z,11.3
2019-05-14T05:38:54.481Z,11.3
2019-05-14T05:39:59.415Z,11.4
2019-05-14T05:42:04.265Z,11.3
2019-05-14T05:44:11.215Z,11.4
2019-05-14T05:45:13.303Z,11.2
2019-05-14T05:46:15.707Z,11.3
2019-05-14T05:47:19.804Z,11.3
2019-05-14T05:49:24.276Z,11.3
2019-05-14T05:51:31.285Z,11.1
2019-05-14T05:52:33.376Z,11.2
2019-05-14T05:54:39.580Z,11.1
2019-05-14T05:56:43.813Z,11.3
2019-05-14T05:58:50.119Z,11.2
2019-05-14T05:59:52.470Z,11.2
2019-05-14T06:01:59.543Z,11.1
2019-05-14T06:04:04.524Z,11.2
2019-05-14T06:06:15.302Z,11.2
2019-05-14T06:07:19.450Z,11
2019-05-14T06:09:23.671Z,11.3
2019-05-14T06:11:30.157Z,11.4
2019-05-14T06:12:32.255Z,11.4
2019-05-14T06:13:34.332Z,11.4
2019-05-14T06:14:39.136Z,11.4
2019-05-14T06:15:53.210Z,11.2
2019-05-14T06:16:55.296Z,11.5
2019-05-14T06:18:22.817Z,11.6
2019-05-14T06:19:24.865Z,11.5
2019-05-14T06:21:31.360Z,11.5
2019-05-14T06:23:38.335Z,11.8
2019-05-14T06:24:40.940Z,11.8
2019-05-14T06:26:45.872Z,11.8
2019-05-14T06:28:52.517Z,11.9
2019-05-14T06:29:55.559Z,11.9
2019-05-14T06:31:00.452Z,12
2019-05-14T06:32:03.385Z,12.1
2019-05-14T06:34:11.154Z,12
2019-05-14T06:36:15.883Z,11.9
2019-05-14T06:37:20.326Z,12
2019-05-14T06:38:22.415Z,12.1
2019-05-14T06:39:24.523Z,12.1
2019-05-14T06:41:31.750Z,12.2
2019-05-14T06:43:39.661Z,12.3
2019-05-14T06:44:41.745Z,12.3
2019-05-14T06:45:43.863Z,12.4
2019-05-14T06:46:48.418Z,12.5
2019-05-14T06:48:52.728Z,12.2
2019-05-14T06:50:59.648Z,12.5
2019-05-14T06:52:02.122Z,12.6
2019-05-14T06:54:09.038Z,12.4
2019-05-14T06:56:13.960Z,12.7
2019-05-14T06:58:21.914Z,12.8
2019-05-14T06:59:23.994Z,12.8
2019-05-14T07:01:31.370Z,12.9
2019-05-14T07:03:38.902Z,12.5
2019-05-14T07:05:43.175Z,13.1
2019-05-14T07:06:45.261Z,12.9
2019-05-14T07:08:53.866Z,13.1
2019-05-14T07:11:01.228Z,13.3
2019-05-14T07:13:08.382Z,13.2
2019-05-14T07:14:13.086Z,13.3
2019-05-14T07:16:20.743Z,13.3
2019-05-14T07:18:25.611Z,13.6
2019-05-14T07:20:33.618Z,13.6
2019-05-14T07:21:38.174Z,13.6
2019-05-14T07:23:43.570Z,13.9
2019-05-14T07:25:49.712Z,13.9
2019-05-14T07:26:52.096Z,14
2019-05-14T07:27:54.564Z,13.9
2019-05-14T07:28:59.467Z,13.9
2019-05-14T07:31:04.002Z,13.9
2019-05-14T07:33:10.565Z,13.9
2019-05-14T07:34:13.564Z,14.1
2019-05-14T07:35:18.121Z,14.1
2019-05-14T07:36:20.847Z,14.1
2019-05-14T07:38:25.094Z,14.2
2019-05-14T07:40:32.446Z,14.3
2019-05-14T07:41:34.533Z,14.2
2019-05-14T07:43:41.925Z,14.4
2019-05-14T07:45:46.152Z,14.4
2019-05-14T07:47:52.507Z,14.8
2019-05-14T07:49:12.775Z,14.9
2019-05-14T07:50:16.228Z,14.9
2019-05-14T07:51:20.564Z,15
2019-05-14T07:53:43.253Z,14.9
2019-05-14T07:55:50.567Z,14.8
2019-05-14T07:57:59.036Z,14.9
2019-05-14T07:59:03.537Z,14.9
2019-05-14T08:01:10.902Z,15
2019-05-14T08:03:16.175Z,14.9
2019-05-14T08:05:24.244Z,15.2
2019-05-14T08:06:28.989Z,15.3
2019-05-14T08:08:33.217Z,15.6
2019-05-14T08:10:39.988Z,15.6
2019-05-14T08:12:44.495Z,15.7
2019-05-14T08:13:49.062Z,15.8
2019-05-14T08:15:23.188Z,15.7
2019-05-14T08:16:25.267Z,15.6
2019-05-14T08:18:31.369Z,15.9
2019-05-14T08:20:39.370Z,16.1
2019-05-14T08:22:43.879Z,16.4
2019-05-14T08:23:48.597Z,16.6
2019-05-14T08:25:53.068Z,16.9
2019-05-14T08:27:59.987Z,16.6
2019-05-14T08:29:02.335Z,16.7
2019-05-14T08:30:04.722Z,16.8
2019-05-14T08:31:09.670Z,16.9
2019-05-14T08:33:14.239Z,16.8
2019-05-14T08:35:19.920Z,16.9
2019-05-14T08:36:22.016Z,17
2019-05-14T08:38:28.840Z,17.4
2019-05-14T08:40:33.077Z,17.2
2019-05-14T08:42:39.814Z,17.2
2019-05-14T08:43:41.897Z,17.4
2019-05-14T08:45:49.607Z,17.6
2019-05-14T08:47:53.787Z,18.1
2019-05-14T08:50:01.947Z,17.9
2019-05-14T08:51:04.040Z,18.1
2019-05-14T08:53:11.580Z,18.1
2019-05-14T08:55:19.035Z,17.8
2019-05-14T08:56:21.155Z,18
2019-05-14T08:57:24.372Z,17.9
2019-05-14T08:58:30.813Z,18.1
2019-05-14T09:00:35.426Z,18.7
2019-05-14T09:02:05.743Z,18.8
2019-05-14T09:03:12.339Z,18.5
2019-05-14T09:05:19.491Z,18.3
2019-05-14T09:07:24.074Z,18.7
2019-05-14T09:08:28.846Z,18.7
2019-05-14T09:10:33.515Z,18.9
2019-05-14T09:11:50.861Z,18.9
2019-05-14T09:12:52.941Z,19
2019-05-14T09:14:59.878Z,18.9
2019-05-14T09:16:02.260Z,18.6
2019-05-14T09:18:12.069Z,18.8
2019-05-14T09:20:19.793Z,19.2
2019-05-14T09:22:24.063Z,18.9
2019-05-14T09:23:29.681Z,19
2019-05-14T09:25:34.906Z,18.9
2019-05-14T09:27:43.685Z,19.3
2019-05-14T09:29:51.211Z,19.3
2019-05-14T09:30:53.311Z,19.3
2019-05-14T09:33:00.384Z,19.1
2019-05-14T09:35:05.379Z,18.8
2019-05-14T09:36:29.256Z,19
2019-05-14T09:37:31.311Z,18.9
2019-05-14T09:38:33.424Z,19.4
2019-05-14T09:39:35.525Z,19.7
2019-05-14T09:40:41.108Z,19.6
2019-05-14T09:42:45.715Z,19.5
2019-05-14T09:44:52.036Z,19.3
2019-05-14T09:45:54.421Z,18.8
2019-05-14T09:47:59.644Z,19
2019-05-14T09:50:24.716Z,19.3
2019-05-14T09:51:29.198Z,19.3
2019-05-14T09:52:31.872Z,19.4
2019-05-14T09:54:36.133Z,19.9
2019-05-14T09:55:40.250Z,20.3
2019-05-14T09:57:44.555Z,20.3
2019-05-14T09:59:49.115Z,20.5
2019-05-14T10:00:51.216Z,20.2
2019-05-14T10:01:53.329Z,20.3
2019-05-14T10:02:55.426Z,20.2
2019-05-14T10:05:03.154Z,20.4
2019-05-14T10:07:09.801Z,20.2
2019-05-14T10:08:12.203Z,20.2
2019-05-14T10:09:14.301Z,19.9
2019-05-14T10:10:20.461Z,19.7
2019-05-14T10:12:24.717Z,19.1
2019-05-14T10:14:31.908Z,19
2019-05-14T10:15:34.407Z,19.3
2019-05-14T10:17:42.066Z,20.6
2019-05-14T10:19:51.120Z,20.8
2019-05-14T10:21:55.633Z,20.5
2019-05-14T10:23:00.026Z,20.3
2019-05-14T10:25:04.933Z,19.6
2019-05-14T10:27:12.273Z,19.2
2019-05-14T10:29:18.962Z,18.9
2019-05-14T10:30:21.166Z,18.7
2019-05-14T10:32:25.406Z,19
2019-05-14T10:34:32.579Z,19.7
2019-05-14T10:35:34.693Z,20.5
2019-05-14T10:36:36.771Z,20.4
2019-05-14T10:37:41.488Z,20.7
2019-05-14T10:39:45.747Z,20.7
2019-05-14T10:41:50.693Z,20.5
2019-05-14T10:42:53.486Z,20.8
2019-05-14T10:45:01.121Z,20.5
2019-05-14T10:47:05.759Z,20.4
2019-05-14T10:49:25.138Z,21
2019-05-14T10:51:32.482Z,19.4
2019-05-14T10:52:34.596Z,19.2
2019-05-14T10:55:00.231Z,19.2
2019-05-14T10:56:02.308Z,19
2019-05-14T10:57:04.419Z,19
2019-05-14T10:59:11.701Z,19.3
2019-05-14T11:00:14.142Z,19.3
2019-05-14T11:02:19.729Z,19.3
2019-05-14T11:04:24.321Z,19
2019-05-14T11:06:31.075Z,19.5
2019-05-14T11:07:33.131Z,19.8
2019-05-14T11:09:39.176Z,20.1
2019-05-14T11:11:46.068Z,20.6
2019-05-14T11:13:58.200Z,20
2019-05-14T11:15:00.567Z,19.5
2019-05-14T11:17:05.068Z,19
2019-05-14T11:19:12.392Z,19
2019-05-14T11:20:14.501Z,19.1
2019-05-14T11:21:31.020Z,19.1
2019-05-14T11:22:33.134Z,18.9
2019-05-14T11:24:40.168Z,18.7
2019-05-14T11:26:44.457Z,19.2
2019-05-14T11:28:50.706Z,20
2019-05-14T11:29:52.785Z,19.5
2019-05-14T11:31:57.087Z,19.1
2019-05-14T11:34:02.475Z,18.7
2019-05-14T11:35:04.597Z,18.6
2019-05-14T11:36:10.181Z,18.3
2019-05-14T11:37:12.284Z,18.2
2019-05-14T11:38:39.362Z,17.8
2019-05-14T11:39:41.414Z,18
2019-05-14T11:41:45.963Z,18.7
2019-05-14T11:43:52.653Z,19.5
2019-05-14T11:44:54.779Z,20
2019-05-14T11:45:59.971Z,20
2019-05-14T11:47:03.752Z,20.2
2019-05-14T11:49:10.326Z,20.1
2019-05-14T11:51:14.887Z,19.9
2019-05-14T11:52:19.174Z,20.3
2019-05-14T11:54:24.388Z,20.8
2019-05-14T11:56:30.802Z,20.6
2019-05-14T11:58:35.705Z,19.4
2019-05-14T11:59:40.558Z,19.6
2019-05-14T12:01:44.823Z,19.7
2019-05-14T12:03:51.917Z,19.6
2019-05-14T12:05:59.188Z,19.3
2019-05-14T12:07:01.270Z,19.3
2019-05-14T12:09:05.907Z,19
2019-05-14T12:11:13.506Z,19.5
2019-05-14T12:13:20.320Z,19.1
2019-05-14T12:14:22.715Z,19
2019-05-14T12:16:30.456Z,18.7
2019-05-14T12:18:35.439Z,18.6
2019-05-14T12:20:50.662Z,19
2019-05-14T12:22:13.450Z,19
2019-05-14T12:23:15.791Z,19
2019-05-14T12:24:19.920Z,18.8
2019-05-14T12:26:24.571Z,18.5
2019-05-14T12:28:30.303Z,18.5
2019-05-14T12:29:32.694Z,18.1
2019-05-14T12:30:35.164Z,18.4
2019-05-14T12:31:39.714Z,18.7
2019-05-14T12:33:44.715Z,19.1
2019-05-14T12:35:52.374Z,18.7
2019-05-14T12:36:54.460Z,18.6
2019-05-14T12:37:59.623Z,18.7
2019-05-14T12:39:02.041Z,19.2
2019-05-14T12:41:09.949Z,19.9
2019-05-14T12:43:18.599Z,19.2
2019-05-14T12:44:21.161Z,19
2019-05-14T12:45:23.564Z,19.1
2019-05-14T12:46:25.937Z,19.3
2019-05-14T12:48:32.310Z,19.4
2019-05-14T12:50:40.006Z,19.5
2019-05-14T12:51:44.505Z,19.8
2019-05-14T12:53:52.149Z,19.3
2019-05-14T12:55:57.084Z,18.7
2019-05-14T12:58:01.231Z,19
2019-05-14T12:59:03.345Z,19.4
2019-05-14T13:01:10.721Z,19.1
2019-05-14T13:03:15.822Z,19.2
2019-05-14T13:05:23.793Z,19.7
2019-05-14T13:06:26.204Z,19.9
2019-05-14T13:08:30.465Z,20.9
2019-05-14T13:10:34.719Z,20.6
2019-05-14T13:11:42.549Z,21.2
2019-05-14T13:13:50.327Z,20.9
2019-05-14T13:15:54.979Z,21.2
2019-05-14T13:18:03.564Z,21.3
2019-05-14T13:19:05.913Z,20.8
2019-05-14T13:20:15.033Z,19.7
2019-05-14T13:21:20.467Z,19.3
2019-05-14T13:22:50.898Z,19.2
2019-05-14T13:23:52.965Z,19.1
2019-05-14T13:26:01.087Z,19.3
2019-05-14T13:28:05.589Z,20.3
2019-05-14T13:30:14.293Z,20.8
2019-05-14T13:31:19.420Z,20.9
2019-05-14T13:33:23.683Z,21
2019-05-14T13:35:30.927Z,21
2019-05-14T13:36:32.968Z,21.4
2019-05-14T13:37:35.352Z,21.6
2019-05-14T13:38:40.782Z,21.4
2019-05-14T13:40:45.417Z,20.5
2019-05-14T13:42:52.461Z,19.4
2019-05-14T13:43:54.591Z,19.3
2019-05-14T13:44:59.669Z,19.2
2019-05-14T13:46:02.052Z,19.1
2019-05-14T13:48:09.619Z,19.8
2019-05-14T13:50:14.938Z,20.3
2019-05-14T13:51:19.989Z,20.5
2019-05-14T13:53:24.435Z,20.8
2019-05-14T13:55:35.411Z,21.4
2019-05-14T13:57:42.992Z,20.6
2019-05-14T13:58:45.484Z,21.1
2019-05-14T14:00:53.715Z,21.1
2019-05-14T14:03:02.204Z,21.2
2019-05-14T14:04:18.904Z,21.6
2019-05-14T14:05:22.245Z,21.8
2019-05-14T14:06:24.953Z,21.5
2019-05-14T14:07:27.452Z,21.3
2019-05-14T14:08:30.803Z,20.6
2019-05-14T14:10:55.321Z,20.7
2019-05-14T14:12:04.701Z,20.9
2019-05-14T14:13:13.161Z,21.4
2019-05-14T14:15:17.378Z,21.7
2019-05-14T14:17:23.214Z,21.3
2019-05-14T14:18:30.105Z,20.9
2019-05-14T14:20:34.329Z,21.3
2019-05-14T14:22:42.165Z,21.2
2019-05-14T14:23:45.170Z,21.4
2019-05-14T14:24:50.497Z,21.5
2019-05-14T14:26:00.774Z,21.7
2019-05-14T14:27:02.865Z,21.2
2019-05-14T14:28:04.999Z,20.6
2019-05-14T14:30:12.431Z,20.9
2019-05-14T14:31:14.988Z,20.2
2019-05-14T14:32:20.341Z,19.8
2019-05-14T14:33:22.466Z,20.2
2019-05-14T14:35:31.693Z,20.8
2019-05-14T14:37:40.381Z,20.9
2019-05-14T14:39:44.576Z,20.5
2019-05-14T14:40:49.409Z,20.5
2019-05-14T14:42:53.943Z,20.1
2019-05-14T14:44:59.949Z,21
2019-05-14T14:46:14.541Z,21.5
2019-05-14T14:47:20.218Z,22
2019-05-14T14:48:22.361Z,21.8
2019-05-14T14:50:30.399Z,21.6
2019-05-14T14:52:35.393Z,21.5
2019-05-14T14:54:16.782Z,21.7
2019-05-14T14:55:21.303Z,21.9
2019-05-14T14:57:25.898Z,20.6
2019-05-14T14:58:29.742Z,20.7
2019-05-14T14:59:31.847Z,21
2019-05-14T15:00:33.944Z,21.1
2019-05-14T15:02:43.681Z,22
2019-05-14T15:04:52.919Z,21.8
2019-05-14T15:05:54.992Z,22.1
2019-05-14T15:07:01.212Z,21.5
2019-05-14T15:08:03.395Z,21.6
2019-05-14T15:10:09.801Z,20.9
2019-05-14T15:12:14.769Z,21.6
2019-05-14T15:13:17.164Z,21.3
2019-05-14T15:15:23.846Z,22
2019-05-14T15:17:32.062Z,20.7
2019-05-14T15:19:40.085Z,20.9
2019-05-14T15:20:42.867Z,20.6
2019-05-14T15:22:50.995Z,20.7
2019-05-14T15:24:20.386Z,21
2019-05-14T15:25:23.050Z,20.7
2019-05-14T15:27:29.389Z,21.3
2019-05-14T15:29:33.914Z,20.7
2019-05-14T15:30:39.273Z,20.6
2019-05-14T15:32:44.119Z,20.9
2019-05-14T15:34:53.918Z,20.5
2019-05-14T15:37:01.348Z,20.9
2019-05-14T15:38:03.414Z,20.9
2019-05-14T15:39:05.517Z,21.3
2019-05-14T15:40:07.628Z,20.7
2019-05-14T15:42:20.361Z,20.9
2019-05-14T15:44:25.728Z,20.8
2019-05-14T15:45:29.848Z,20.7
2019-05-14T15:47:34.431Z,20.8
2019-05-14T15:49:42.984Z,21.1
2019-05-14T15:51:47.225Z,20.8
2019-05-14T15:52:49.858Z,21.3
2019-05-14T15:54:50.999Z,21.4
2019-05-14T15:55:53.072Z,20.5
2019-05-14T15:56:55.593Z,20.1
2019-05-14T15:58:00.213Z,20.9
2019-05-14T15:59:02.624Z,20.7
2019-05-14T16:00:05.141Z,20.1
2019-05-14T16:02:14.184Z,19.3
2019-05-14T16:04:21.987Z,19.4
2019-05-14T16:05:24.099Z,19.9
2019-05-14T16:06:26.203Z,20.4
2019-05-14T16:07:30.792Z,20
2019-05-14T16:09:35.106Z,19.5
2019-05-14T16:11:43.288Z,19.6
2019-05-14T16:12:45.404Z,19.4
2019-05-14T16:13:50.475Z,19.5
2019-05-14T16:14:52.889Z,19.8
2019-05-14T16:16:57.551Z,19.6
2019-05-14T16:18:23.027Z,20.1
2019-05-14T16:19:25.128Z,19.8
2019-05-14T16:21:33.417Z,19.9
2019-05-14T16:22:35.531Z,19.6
2019-05-14T16:25:01.981Z,19.2
2019-05-14T16:27:09.699Z,19.1
2019-05-14T16:29:14.652Z,18.9
2019-05-14T16:31:21.856Z,18.7
2019-05-14T16:32:23.994Z,18.6
2019-05-14T16:34:32.489Z,18.7
2019-05-14T16:36:42.486Z,18.3
2019-05-14T16:38:51.219Z,17.9
2019-05-14T16:39:53.959Z,17.8
2019-05-14T16:41:59.367Z,17.9
2019-05-14T16:44:04.380Z,18
2019-05-14T16:46:12.098Z,18
2019-05-14T16:47:14.192Z,18
2019-05-14T16:49:22.409Z,18.4
2019-05-14T16:51:28.794Z,18.3
2019-05-14T16:52:32.424Z,18.3
2019-05-14T16:53:37.813Z,18
2019-05-14T16:54:41.711Z,18.3
2019-05-14T16:56:50.445Z,18.3
2019-05-14T16:58:59.367Z,18
2019-05-14T17:00:02.562Z,18
2019-05-14T17:01:04.650Z,18.1
2019-05-14T17:02:09.598Z,18.2
2019-05-14T17:04:14.170Z,18.2
2019-05-14T17:06:19.930Z,18.2
2019-05-14T17:07:23.261Z,18.1
2019-05-14T17:09:29.353Z,17.8
2019-05-14T17:11:34.259Z,17.7
2019-05-14T17:13:02.537Z,17.7
2019-05-14T17:14:04.607Z,18
2019-05-14T17:16:12.359Z,17.9
2019-05-14T17:17:15.385Z,17.6
2019-05-14T17:19:22.947Z,17.6
2019-05-14T17:21:28.600Z,18
2019-05-14T17:23:40.326Z,17.7
2019-05-14T17:24:42.715Z,17.5
2019-05-14T17:26:49.688Z,17.5
2019-05-14T17:28:53.967Z,17.4
2019-05-14T17:30:58.527Z,17.1
2019-05-14T17:32:00.656Z,17.3
2019-05-14T17:34:05.352Z,17.5
2019-05-14T17:36:13.481Z,17.6
2019-05-14T17:37:15.996Z,17.4
2019-05-14T17:38:19.599Z,17.1
2019-05-14T17:39:21.702Z,16.8
2019-05-14T17:41:26.662Z,16.9
2019-05-14T17:43:32.511Z,16.3
2019-05-14T17:44:34.617Z,16.5
2019-05-14T17:45:40.000Z,16.7
2019-05-14T17:46:42.095Z,16.9
2019-05-14T17:48:49.526Z,16.8
2019-05-14T17:50:54.544Z,17
2019-05-14T17:51:59.394Z,16.5
2019-05-14T17:54:03.909Z,16.6
2019-05-14T17:55:13.004Z,16.6
2019-05-14T17:56:15.100Z,16.2
2019-05-14T17:57:35.784Z,16.3
2019-05-14T17:58:49.792Z,16.3
2019-05-14T18:00:54.073Z,16.2
2019-05-14T18:01:59.101Z,16.1
2019-05-14T18:03:01.195Z,16.2
2019-05-14T18:04:03.323Z,16
2019-05-14T18:06:10.582Z,15.9
2019-05-14T18:08:15.148Z,15.8
2019-05-14T18:09:20.179Z,15.7
2019-05-14T18:11:24.487Z,15.6
2019-05-14T18:13:28.729Z,15.4
2019-05-14T18:15:33.286Z,15.3
2019-05-14T18:16:37.933Z,15.4
2019-05-14T18:18:43.661Z,15.3
2019-05-14T18:20:50.731Z,15.1
2019-05-14T18:21:53.110Z,15.2
2019-05-14T18:22:55.508Z,15
2019-05-14T18:24:00.270Z,15
2019-05-14T18:26:10.726Z,14.8
2019-05-14T18:28:15.026Z,14.7
2019-05-14T18:29:20.360Z,14.7
2019-05-14T18:30:22.453Z,14.8
2019-05-14T18:31:24.549Z,14.7
2019-05-14T18:33:33.381Z,14.7
2019-05-14T18:35:51.442Z,14.6
2019-05-14T18:37:55.598Z,14.5
2019-05-14T18:38:59.710Z,14.4
2019-05-14T18:41:04.378Z,14.4
2019-05-14T18:43:12.039Z,14.4
2019-05-14T18:44:14.160Z,14.3
2019-05-14T18:45:18.790Z,14.3
2019-05-14T18:46:21.441Z,14.2
2019-05-14T18:48:25.688Z,14.1
2019-05-14T18:50:32.072Z,14
2019-05-14T18:51:34.195Z,14.1
2019-05-14T18:52:40.405Z,14.1
2019-05-14T18:53:42.563Z,14.1
2019-05-14T18:55:50.360Z,13.9
2019-05-14T18:57:54.593Z,14
2019-05-14T18:58:57.100Z,13.9
2019-05-14T19:01:01.285Z,13.8
2019-05-14T19:03:08.615Z,13.8
2019-05-14T19:05:13.139Z,13.8
2019-05-14T19:06:15.236Z,13.7
2019-05-14T19:08:22.241Z,13.7
2019-05-14T19:10:29.451Z,13.6
2019-05-14T19:11:31.537Z,13.6
2019-05-14T19:12:33.624Z,13.5
2019-05-14T19:13:35.718Z,13.4
2019-05-14T19:15:42.335Z,13.3
2019-05-14T19:17:50.068Z,13.2
2019-05-14T19:18:52.150Z,13.3
2019-05-14T19:20:56.399Z,13.1
2019-05-14T19:23:01.611Z,13
2019-05-14T19:25:09.407Z,13.1
2019-05-14T19:26:11.803Z,13.1
2019-05-14T19:28:18.919Z,12.9
2019-05-14T19:30:23.536Z,12.7
2019-05-14T19:31:28.044Z,12.6
2019-05-14T19:32:30.149Z,12.6
2019-05-14T19:33:32.259Z,12.6
2019-05-14T19:35:39.880Z,12.5
2019-05-14T19:37:44.150Z,12.5
2019-05-14T19:38:48.767Z,12.5
2019-05-14T19:39:50.858Z,12.4
2019-05-14T19:41:00.754Z,12.4
2019-05-14T19:42:19.887Z,12.4
2019-05-14T19:43:59.560Z,12.3
2019-05-14T19:45:12.308Z,11.9
2019-05-14T19:46:26.061Z,12.2
2019-05-14T19:47:40.897Z,12.1
2019-05-14T19:48:59.037Z,12
2019-05-14T19:50:10.502Z,12
2019-05-14T19:51:20.490Z,12.1
2019-05-14T19:52:32.360Z,12.1
2019-05-14T19:53:43.209Z,12
2019-05-14T19:56:04.665Z,11.9
2019-05-14T19:57:19.236Z,11.9
2019-05-14T19:58:29.074Z,11.9
2019-05-14T19:59:38.280Z,11.8
2019-05-14T20:00:45.849Z,11.9
2019-05-14T20:01:55.186Z,11.8
2019-05-14T20:03:04.266Z,11.8
2019-05-14T20:04:18.251Z,11.7
2019-05-14T20:06:34.096Z,11.6
2019-05-14T20:07:46.090Z,11.6
2019-05-14T20:08:58.558Z,11.6
2019-05-14T20:10:08.373Z,11.7
2019-05-14T20:11:25.823Z,11.7
2019-05-14T20:12:40.666Z,11.6
2019-05-14T20:13:54.147Z,11.6
2019-05-14T20:15:05.971Z,11.7
2019-05-14T20:16:20.978Z,11.7
2019-05-14T20:17:38.127Z,11.5
2019-05-14T20:18:52.893Z,11.5
2019-05-14T20:20:05.475Z,11.5
2019-05-14T20:21:16.200Z,11.5
2019-05-14T20:22:23.870Z,11.4
2019-05-14T20:23:30.525Z,11.4
2019-05-14T20:25:35.215Z,11.4
2019-05-14T20:26:57.541Z,11.5
2019-05-14T20:28:11.228Z,11.4
2019-05-14T20:30:19.156Z,11.4
2019-05-14T20:31:25.913Z,11.3
2019-05-14T20:33:33.599Z,11.3
2019-05-14T20:35:38.114Z,11.3
2019-05-14T20:37:42.716Z,11.2
2019-05-14T20:38:44.810Z,11.1
2019-05-14T20:40:51.546Z,11.1
2019-05-14T20:42:55.768Z,10.9
2019-05-14T20:45:02.802Z,11
2019-05-14T20:46:04.872Z,11.1
2019-05-14T20:48:11.688Z,11.2
2019-05-14T20:50:18.599Z,11.3
2019-05-14T20:51:20.956Z,11.3
2019-05-14T20:52:23.038Z,11.2
2019-05-14T20:53:25.170Z,11.2
2019-05-14T20:55:31.874Z,11.3
2019-05-14T20:57:39.196Z,11.3
2019-05-14T20:58:41.275Z,11.2
2019-05-14T21:00:45.571Z,11.2
2019-05-14T21:02:50.509Z,11.2
2019-05-14T21:05:14.320Z,11.1
2019-05-14T21:06:19.010Z,11.1
2019-05-14T21:07:21.402Z,11
2019-05-14T21:08:23.860Z,11.2
2019-05-14T21:10:30.383Z,11.2
2019-05-14T21:12:35.116Z,11.1
2019-05-14T21:13:37.738Z,10.9
2019-05-14T21:15:45.041Z,11
2019-05-14T21:17:52.991Z,10.7
2019-05-14T21:19:57.933Z,11.1
2019-05-14T21:21:00.896Z,11.1
2019-05-14T21:23:08.807Z,11
2019-05-14T21:25:13.855Z,11.1
2019-05-14T21:27:19.855Z,11
2019-05-14T21:28:22.315Z,11
2019-05-14T21:30:30.155Z,10.9
2019-05-14T21:32:34.744Z,10.8
2019-05-14T21:34:42.159Z,10.8
2019-05-14T21:35:44.616Z,10.6